Welcome to Northern Hawkes Bay. New Zealand.
PWS Header
      nz Flag



Hit Counter


W3C Valid W3C Valid logo


    Wairoa

Select any of the Stations below to visit their websites.










Historic Data from Weather Underground
Select the location of interest below. Wairoa is the default. Please have patience, this Data is slow to load in.
Northern Hawkes Bay Historical Data
Daily Summary for October 30, 2017 Units:  Metric    English   Both
« Previous Day
Next Day »
Daily Weekly Monthly Yearly Custom
  High: Low: Average:
Temperature: 24.5 °C 10.1 °C 17.1 °C
Dew Point: 15.8 °C 6.4 °C 12.5 °C
Humidity: 99% 43% 76%
Wind Speed: 12.2km/h 0.0km/h 2.6km/h
Wind Gust: 19.5km/h - -
Wind- - SSW
Pressure: 1029.0 hPa 1025.3 hPa -
Precipitation: 0.0 mm    
Historical Graphs
 
 
Tabular Data for October 30, 2017
Time Temperature Dew Point Pressure Wind Wind Speed Wind Gust Humidity Rainfall Rate (Hourly) solar
00:04 14.2 °C 14.1 °C 1027.7 hPa North 1.1 km/h 3.5 km/h 99% 0.0 mm 0 W/m2
00:09 14.2 °C 14.1 °C 1027.7 hPa Calm   3.5 km/h 99% 0.0 mm 0 W/m2
00:14 14.1 °C 13.9 °C 1027.7 hPa North 1.1 km/h 3.5 km/h 99% 0.0 mm 0 W/m2
00:19 13.9 °C 13.8 °C 1027.7 hPa NNE 1.1 km/h 3.5 km/h 99% 0.0 mm 0 W/m2
00:24 13.8 °C 13.7 °C 1027.7 hPa North 1.1 km/h 6.1 km/h 99% 0.0 mm 0 W/m2
00:29 13.6 °C 13.4 °C 1027.3 hPa North 3.5 km/h 6.1 km/h 99% 0.0 mm 0 W/m2
00:34 13.6 °C 13.4 °C 1027.3 hPa North 2.6 km/h 6.1 km/h 99% 0.0 mm 0 W/m2
00:39 13.6 °C 13.4 °C 1027.3 hPa North 2.6 km/h 6.1 km/h 99% 0.0 mm 0 W/m2
00:44 13.6 °C 13.4 °C 1027.3 hPa North 1.1 km/h 6.1 km/h 99% 0.0 mm 0 W/m2
00:49 13.6 °C 13.3 °C 1027.3 hPa NNE 2.6 km/h 5.0 km/h 98% 0.0 mm 0 W/m2
00:54 13.6 °C 13.1 °C 1027.3 hPa North 2.6 km/h 5.0 km/h 97% 0.0 mm 0 W/m2
00:59 13.6 °C 13.0 °C 1027.0 hPa North 2.6 km/h 5.0 km/h 96% 0.0 mm 0 W/m2
01:04 13.5 °C 12.9 °C 1027.3 hPa North 1.1 km/h 5.0 km/h 96% 0.0 mm 0 W/m2
01:09 13.5 °C 12.7 °C 1027.3 hPa NNW 1.1 km/h 5.0 km/h 95% 0.0 mm 0 W/m2
01:14 13.5 °C 12.7 °C 1027.3 hPa NNW 2.6 km/h 5.0 km/h 95% 0.0 mm 0 W/m2
01:19 13.6 °C 12.7 °C 1027.3 hPa North 1.1 km/h 5.0 km/h 94% 0.0 mm 0 W/m2
01:24 13.5 °C 12.6 °C 1027.3 hPa Calm   5.0 km/h 94% 0.0 mm 0 W/m2
01:29 13.5 °C 12.6 °C 1027.3 hPa Calm   5.0 km/h 94% 0.0 mm 0 W/m2
01:34 13.4 °C 12.4 °C 1027.0 hPa Calm   3.5 km/h 94% 0.0 mm 0 W/m2
01:39 13.4 °C 12.4 °C 1027.0 hPa Calm   3.5 km/h 94% 0.0 mm 0 W/m2
01:44 13.3 °C 12.3 °C 1027.0 hPa NNW 1.1 km/h 3.5 km/h 94% 0.0 mm 0 W/m2
01:49 13.3 °C 12.3 °C 1027.0 hPa NW 1.1 km/h 3.5 km/h 94% 0.0 mm 0 W/m2
01:54 13.3 °C 12.5 °C 1027.0 hPa NW 2.6 km/h 5.0 km/h 95% 0.0 mm 0 W/m2
01:59 13.2 °C 12.4 °C 1027.3 hPa NW 2.6 km/h 5.0 km/h 95% 0.0 mm 0 W/m2
02:04 13.1 °C 12.3 °C 1027.3 hPa NNW 1.1 km/h 5.0 km/h 95% 0.0 mm 0 W/m2
02:09 13.1 °C 12.3 °C 1027.0 hPa NNW 1.1 km/h 5.0 km/h 95% 0.0 mm 0 W/m2
02:14 13.0 °C 12.2 °C 1027.0 hPa North 1.1 km/h 3.5 km/h 95% 0.0 mm 0 W/m2
02:19 13.0 °C 12.2 °C 1027.0 hPa Calm   3.5 km/h 95% 0.0 mm 0 W/m2
02:24 12.9 °C 11.9 °C 1027.0 hPa Calm   2.6 km/h 94% 0.0 mm 0 W/m2
02:29 12.8 °C 11.9 °C 1027.0 hPa Calm     94% 0.0 mm 0 W/m2
02:34 12.7 °C 11.8 °C 1027.0 hPa Calm     94% 0.0 mm 0 W/m2
02:39 12.7 °C 11.9 °C 1027.0 hPa Calm   1.1 km/h 95% 0.0 mm 0 W/m2
02:44 12.5 °C 11.7 °C 1027.0 hPa NW 1.1 km/h 2.6 km/h 95% 0.0 mm 0 W/m2
02:49 12.4 °C 11.6 °C 1027.0 hPa NW 1.1 km/h 2.6 km/h 95% 0.0 mm 0 W/m2
02:54 12.3 °C 11.5 °C 1027.0 hPa NW 2.6 km/h 3.5 km/h 95% 0.0 mm 0 W/m2
02:59 12.2 °C 11.4 °C 1027.0 hPa NW 2.6 km/h 3.5 km/h 95% 0.0 mm 0 W/m2
03:04 12.1 °C 11.3 °C 1027.0 hPa NNW 1.1 km/h 3.5 km/h 95% 0.0 mm 0 W/m2
03:09 12.0 °C 11.2 °C 1027.0 hPa North 2.6 km/h 3.5 km/h 95% 0.0 mm 0 W/m2
03:14 12.0 °C 11.2 °C 1027.0 hPa North 1.1 km/h 3.5 km/h 95% 0.0 mm 0 W/m2
03:19 11.9 °C 11.3 °C 1027.0 hPa North 1.1 km/h 3.5 km/h 96% 0.0 mm 0 W/m2
03:24 11.8 °C 11.2 °C 1027.0 hPa North 2.6 km/h 3.5 km/h 96% 0.0 mm 0 W/m2
03:29 11.8 °C 11.2 °C 1027.0 hPa North 2.6 km/h 5.0 km/h 96% 0.0 mm 0 W/m2
03:34 11.8 °C 11.2 °C 1027.0 hPa North 3.5 km/h 5.0 km/h 96% 0.0 mm 0 W/m2
03:39 11.7 °C 11.1 °C 1027.0 hPa North 3.5 km/h 5.0 km/h 96% 0.0 mm 0 W/m2
03:44 11.7 °C 11.1 °C 1027.0 hPa North 3.5 km/h 6.1 km/h 96% 0.0 mm 0 W/m2
03:49 11.7 °C 11.1 °C 1027.0 hPa North 2.6 km/h 6.1 km/h 96% 0.0 mm 0 W/m2
03:54 11.7 °C 11.1 °C 1027.0 hPa NNW 2.6 km/h 6.1 km/h 96% 0.0 mm 0 W/m2
03:59 11.7 °C 11.1 °C 1026.6 hPa NNW 2.6 km/h 6.1 km/h 96% 0.0 mm 0 W/m2
04:04 11.7 °C 11.1 °C 1027.0 hPa NNW 2.6 km/h 6.1 km/h 96% 0.0 mm 0 W/m2
04:09 11.7 °C 10.9 °C 1027.0 hPa NNW 2.6 km/h 5.0 km/h 95% 0.0 mm 0 W/m2
04:14 11.6 °C 10.8 °C 1027.0 hPa Calm   5.0 km/h 95% 0.0 mm 0 W/m2
04:19 11.5 °C 10.7 °C 1027.0 hPa Calm   3.5 km/h 95% 0.0 mm 0 W/m2
04:24 11.5 °C 10.9 °C 1027.0 hPa North 2.6 km/h 5.0 km/h 96% 0.0 mm 0 W/m2
04:29 11.4 °C 10.8 °C 1027.0 hPa North 2.6 km/h 5.0 km/h 96% 0.0 mm 0 W/m2
04:34 11.4 °C 10.8 °C 1027.0 hPa NNW 3.5 km/h 6.1 km/h 96% 0.0 mm 0 W/m2
04:39 11.4 °C 10.9 °C 1027.0 hPa NNW 2.6 km/h 6.1 km/h 97% 0.0 mm 0 W/m2
04:44 11.3 °C 10.8 °C 1027.0 hPa NNW 2.6 km/h 6.1 km/h 97% 0.0 mm 0 W/m2
04:49 11.1 °C 10.7 °C 1027.0 hPa NNW 1.1 km/h 5.0 km/h 97% 0.0 mm 0 W/m2
04:54 11.1 °C 10.7 °C 1027.0 hPa NW 2.6 km/h 5.0 km/h 97% 0.0 mm 0 W/m2
04:59 10.9 °C 10.6 °C 1027.3 hPa Calm   5.0 km/h 98% 0.0 mm 0 W/m2
05:04 10.8 °C 10.7 °C 1027.0 hPa Calm   5.0 km/h 99% 0.0 mm 0 W/m2
05:09 10.8 °C 10.7 °C 1027.0 hPa NW 1.1 km/h 3.5 km/h 99% 0.0 mm 0 W/m2
05:14 10.7 °C 10.6 °C 1027.0 hPa NW 2.6 km/h 3.5 km/h 99% 0.0 mm 0 W/m2
05:19 10.6 °C 10.4 °C 1027.0 hPa NW 2.6 km/h 5.0 km/h 99% 0.0 mm 0 W/m2
05:24 10.5 °C 10.3 °C 1027.0 hPa NW 2.6 km/h 5.0 km/h 99% 0.0 mm 0 W/m2
05:29 10.4 °C 10.3 °C 1027.3 hPa Calm   5.0 km/h 99% 0.0 mm 0 W/m2
05:34 10.3 °C 10.2 °C 1027.3 hPa Calm   3.5 km/h 99% 0.0 mm 0 W/m2
05:39 10.2 °C 10.1 °C 1027.3 hPa North 1.1 km/h 3.5 km/h 99% 0.0 mm 0 W/m2
05:44 10.2 °C 10.1 °C 1027.3 hPa Calm   3.5 km/h 99% 0.0 mm 0 W/m2
05:49 10.2 °C 10.1 °C 1027.7 hPa North 1.1 km/h 2.6 km/h 99% 0.0 mm 0 W/m2
05:54 10.2 °C 10.1 °C 1027.7 hPa North 2.6 km/h 3.5 km/h 99% 0.0 mm 0 W/m2
05:59 10.2 °C 10.1 °C 1027.7 hPa North 1.1 km/h 3.5 km/h 99% 0.0 mm 0 W/m2
06:04 10.2 °C 10.1 °C 1027.7 hPa NNW 2.6 km/h 5.0 km/h 99% 0.0 mm 0 W/m2
06:09 10.1 °C 9.9 °C 1027.7 hPa NNW 1.1 km/h 6.1 km/h 99% 0.0 mm 3 W/m2
06:14 10.1 °C 9.9 °C 1027.7 hPa NW 3.5 km/h 6.1 km/h 99% 0.0 mm 7 W/m2
06:17 10.1 °C 9.9 °C 1027.7 hPa NNW 3.5 km/h 7.2 km/h 99% 0.0 mm 10 W/m2
06:22 10.1 °C 9.9 °C 1027.7 hPa NNW 3.5 km/h 8.7 km/h 99% 0.0 mm 16 W/m2
06:27 10.1 °C 9.9 °C 1027.7 hPa NNW 2.6 km/h 8.7 km/h 99% 0.0 mm 19 W/m2
06:32 10.2 °C 10.1 °C 1027.7 hPa NNW 2.6 km/h 8.7 km/h 99% 0.0 mm 46 W/m2
06:37 10.6 °C 10.4 °C 1027.7 hPa NNW 2.6 km/h 7.2 km/h 99% 0.0 mm 59 W/m2
06:42 10.9 °C 10.8 °C 1027.7 hPa NNW 3.5 km/h 7.2 km/h 99% 0.0 mm 73 W/m2
06:47 11.3 °C 11.0 °C 1027.7 hPa NW 3.5 km/h 7.2 km/h 98% 0.0 mm 86 W/m2
06:52 11.6 °C 11.2 °C 1027.7 hPa NW 3.5 km/h 8.7 km/h 97% 0.0 mm 95 W/m2
06:57 12.0 °C 11.1 °C 1027.7 hPa NNW 3.5 km/h 8.7 km/h 94% 0.0 mm 102 W/m2
07:02 12.2 °C 10.8 °C 1027.7 hPa NNW 5.0 km/h 8.7 km/h 91% 0.0 mm 109 W/m2
07:07 12.3 °C 10.6 °C 1028.0 hPa NNW 6.1 km/h 9.7 km/h 89% 0.0 mm 115 W/m2
07:12 12.5 °C 10.4 °C 1027.7 hPa NNW 5.0 km/h 12.2 km/h 87% 0.0 mm 121 W/m2
07:17 12.8 °C 10.5 °C 1028.0 hPa NNW 6.1 km/h 12.2 km/h 86% 0.0 mm 124 W/m2
07:22 12.9 °C 10.4 °C 1028.0 hPa NNW 3.5 km/h 9.7 km/h 85% 0.0 mm 79 W/m2
07:27 12.7 °C 10.2 °C 1028.0 hPa NW 2.6 km/h 9.7 km/h 85% 0.0 mm 83 W/m2
07:32 12.6 °C 10.3 °C 1028.0 hPa NNW 2.6 km/h 8.7 km/h 86% 0.0 mm 95 W/m2
07:37 12.8 °C 10.5 °C 1028.0 hPa NNW 2.6 km/h 8.7 km/h 86% 0.0 mm 86 W/m2
07:42 12.7 °C 10.4 °C 1028.3 hPa NNW 3.5 km/h 8.7 km/h 86% 0.0 mm 94 W/m2
07:47 12.6 °C 10.5 °C 1028.0 hPa NNW 3.5 km/h 7.2 km/h 87% 0.0 mm 105 W/m2
07:52 12.4 °C 10.4 °C 1028.0 hPa NNW 2.6 km/h 7.2 km/h 88% 0.0 mm 102 W/m2
07:57 12.9 °C 11.1 °C 1028.3 hPa NNW 3.5 km/h 7.2 km/h 89% 0.0 mm 210 W/m2
08:02 13.7 °C 11.8 °C 1028.0 hPa North 5.0 km/h 8.7 km/h 88% 0.0 mm 147 W/m2
08:07 13.8 °C 11.5 °C 1028.3 hPa North 5.0 km/h 8.7 km/h 86% 0.0 mm 198 W/m2
08:12 14.4 °C 11.7 °C 1028.3 hPa NNW 2.6 km/h 8.7 km/h 84% 0.0 mm 230 W/m2
08:17 15.0 °C 11.6 °C 1028.3 hPa North 2.6 km/h 8.7 km/h 80% 0.0 mm 242 W/m2
08:22 15.4 °C 11.6 °C 1028.3 hPa North 1.1 km/h 7.2 km/h 78% 0.0 mm 252 W/m2
08:27 16.0 °C 11.6 °C 1028.3 hPa North 2.6 km/h 7.2 km/h 75% 0.0 mm 242 W/m2
08:32 16.2 °C 11.6 °C 1028.3 hPa NNW 2.6 km/h 6.1 km/h 74% 0.0 mm 240 W/m2
08:37 16.3 °C 11.4 °C 1028.7 hPa NNW 1.1 km/h 6.1 km/h 73% 0.0 mm 264 W/m2
08:42 16.7 °C 11.6 °C 1028.7 hPa North 2.6 km/h 7.2 km/h 72% 0.0 mm 276 W/m2
08:47 17.0 °C 11.3 °C 1028.7 hPa North 3.5 km/h 7.2 km/h 69% 0.0 mm 291 W/m2
08:52 17.1 °C 11.2 °C 1028.7 hPa North 5.0 km/h 7.2 km/h 68% 0.0 mm 297 W/m2
08:57 17.2 °C 10.1 °C 1028.7 hPa North 6.1 km/h 8.7 km/h 63% 0.0 mm 303 W/m2
09:02 17.3 °C 9.9 °C 1029.0 hPa North 3.5 km/h 9.7 km/h 62% 0.0 mm 325 W/m2
09:07 17.6 °C 10.0 °C 1028.7 hPa North 6.1 km/h 9.7 km/h 61% 0.0 mm 343 W/m2
09:12 17.6 °C 10.0 °C 1028.7 hPa North 5.0 km/h 9.7 km/h 61% 0.0 mm 353 W/m2
09:17 17.9 °C 10.3 °C 1029.0 hPa NNW 5.0 km/h 8.7 km/h 61% 0.0 mm 370 W/m2
09:22 17.9 °C 9.6 °C 1028.7 hPa North 1.1 km/h 9.7 km/h 58% 0.0 mm 381 W/m2
09:27 18.1 °C 9.9 °C 1029.0 hPa NNE 1.1 km/h 9.7 km/h 59% 0.0 mm 396 W/m2
09:32 18.7 °C 10.8 °C 1029.0 hPa NNE 1.1 km/h 8.7 km/h 60% 0.0 mm 410 W/m2
09:37 18.7 °C 10.0 °C 1029.0 hPa NNE 1.1 km/h 9.7 km/h 57% 0.0 mm 427 W/m2
09:42 18.9 °C 9.9 °C 1029.0 hPa North 2.6 km/h 9.7 km/h 56% 0.0 mm 446 W/m2
09:47 18.9 °C 9.7 °C 1029.0 hPa NNW 3.5 km/h 8.7 km/h 55% 0.0 mm 467 W/m2
09:52 19.1 °C 9.8 °C 1029.0 hPa Calm   7.2 km/h 55% 0.0 mm 488 W/m2
09:57 19.7 °C 10.7 °C 1028.7 hPa Calm   7.2 km/h 56% 0.0 mm 430 W/m2
10:02 19.7 °C 10.2 °C 1028.7 hPa North 1.1 km/h 7.2 km/h 54% 0.0 mm 461 W/m2
10:07 19.7 °C 9.9 °C 1028.7 hPa NNE 2.6 km/h 7.2 km/h 53% 0.0 mm 487 W/m2
10:12 20.0 °C 8.3 °C 1029.0 hPa ENE 1.1 km/h 6.1 km/h 47% 0.0 mm 545 W/m2
10:17 20.2 °C 8.8 °C 1028.7 hPa ENE 2.6 km/h 7.2 km/h 48% 0.0 mm 495 W/m2
10:22 20.0 °C 7.1 °C 1028.7 hPa ENE 9.7 km/h 12.2 km/h 43% 0.0 mm 482 W/m2
10:27 19.7 °C 7.1 °C 1028.7 hPa ENE 6.1 km/h 12.2 km/h 44% 0.0 mm 412 W/m2
10:32 19.3 °C 6.4 °C 1028.7 hPa ENE 5.0 km/h 12.2 km/h 43% 0.0 mm 367 W/m2
10:37 19.1 °C 6.6 °C 1028.7 hPa NE 3.5 km/h 12.2 km/h 44% 0.0 mm 280 W/m2
10:42 19.3 °C 7.4 °C 1028.7 hPa ENE 5.0 km/h 11.1 km/h 46% 0.0 mm 337 W/m2
10:43 19.4 °C 7.5 °C 1028.7 hPa ENE 1.1 km/h 8.7 km/h 46% 0.0 mm 646 W/m2
10:48 20.6 °C 11.0 °C 1028.7 hPa Calm   7.2 km/h 54% 0.0 mm 528 W/m2
10:53 20.7 °C 13.2 °C 1028.3 hPa SE 2.6 km/h 9.7 km/h 62% 0.0 mm 704 W/m2
10:58 20.1 °C 12.8 °C 1028.7 hPa SSE 7.2 km/h 12.2 km/h 63% 0.0 mm 730 W/m2
11:03 19.5 °C 13.0 °C 1028.7 hPa South 2.6 km/h 12.2 km/h 66% 0.0 mm 686 W/m2
11:08 19.4 °C 13.3 °C 1028.3 hPa South 6.1 km/h 12.2 km/h 68% 0.0 mm 736 W/m2
11:13 19.4 °C 13.3 °C 1028.3 hPa SSE 5.0 km/h 12.2 km/h 68% 0.0 mm 750 W/m2
11:18 19.0 °C 13.2 °C 1028.3 hPa SSE 7.2 km/h 12.2 km/h 69% 0.0 mm 757 W/m2
11:23 19.0 °C 12.7 °C 1028.3 hPa SSE 2.6 km/h 13.4 km/h 67% 0.0 mm 779 W/m2
11:28 19.5 °C 13.4 °C 1028.3 hPa South 7.2 km/h 13.4 km/h 68% 0.0 mm 799 W/m2
11:33 19.4 °C 12.9 °C 1028.3 hPa Calm   13.4 km/h 66% 0.0 mm 797 W/m2
11:38 19.8 °C 13.3 °C 1028.0 hPa SE 3.5 km/h 14.8 km/h 66% 0.0 mm 812 W/m2
11:43 20.2 °C 12.4 °C 1028.0 hPa SE 2.6 km/h 14.8 km/h 61% 0.0 mm 747 W/m2
11:48 20.2 °C 12.2 °C 1028.3 hPa South 1.1 km/h 13.4 km/h 60% 0.0 mm 764 W/m2
11:53 20.5 °C 12.5 °C 1028.0 hPa South 8.7 km/h 13.4 km/h 60% 0.0 mm 783 W/m2
11:58 20.5 °C 12.2 °C 1028.3 hPa SSE 6.1 km/h 12.2 km/h 59% 0.0 mm 772 W/m2
12:03 20.2 °C 12.4 °C 1028.0 hPa SSE 3.5 km/h 15.8 km/h 61% 0.0 mm 734 W/m2
12:08 20.2 °C 12.2 °C 1028.0 hPa SSE 6.1 km/h 15.8 km/h 60% 0.0 mm 732 W/m2
12:13 20.1 °C 12.1 °C 1028.0 hPa SSE 12.2 km/h 15.8 km/h 60% 0.0 mm 712 W/m2
12:18 19.8 °C 13.1 °C 1027.7 hPa SSE 7.2 km/h 15.8 km/h 65% 0.0 mm 666 W/m2
12:23 20.1 °C 12.8 °C 1027.7 hPa SSE 6.1 km/h 15.8 km/h 63% 0.0 mm 683 W/m2
12:28 20.0 °C 12.0 °C 1027.7 hPa SSE 6.1 km/h 19.5 km/h 60% 0.0 mm 643 W/m2
12:33 20.1 °C 12.8 °C 1027.7 hPa SSE 7.2 km/h 19.5 km/h 63% 0.0 mm 660 W/m2
12:38 20.2 °C 12.9 °C 1027.7 hPa SE 2.6 km/h 14.8 km/h 63% 0.0 mm 676 W/m2
12:43 20.2 °C 12.7 °C 1027.7 hPa SSE 5.0 km/h 14.8 km/h 62% 0.0 mm 691 W/m2
12:48 20.3 °C 12.6 °C 1027.7 hPa South 5.0 km/h 13.4 km/h 61% 0.0 mm 714 W/m2
12:53 20.6 °C 13.1 °C 1027.7 hPa SSE 5.0 km/h 13.4 km/h 62% 0.0 mm 761 W/m2
12:58 21.2 °C 13.2 °C 1027.7 hPa SE 5.0 km/h 13.4 km/h 60% 0.0 mm 852 W/m2
13:03 21.6 °C 13.0 °C 1027.7 hPa SE 6.1 km/h 11.1 km/h 58% 0.0 mm 853 W/m2
13:08 21.5 °C 12.1 °C 1027.7 hPa SE 5.0 km/h 13.4 km/h 55% 0.0 mm 471 W/m2
13:13 21.1 °C 11.7 °C 1027.7 hPa ESE 8.7 km/h 13.4 km/h 55% 0.0 mm 373 W/m2
13:18 20.9 °C 11.8 °C 1027.7 hPa SE 3.5 km/h 12.2 km/h 56% 0.0 mm 691 W/m2
13:23 21.4 °C 12.8 °C 1027.7 hPa SE 3.5 km/h 12.2 km/h 58% 0.0 mm 336 W/m2
13:28 21.3 °C 11.9 °C 1027.7 hPa SE 5.0 km/h 11.1 km/h 55% 0.0 mm 320 W/m2
13:33 21.0 °C 11.9 °C 1027.3 hPa Calm   11.1 km/h 56% 0.0 mm 345 W/m2
13:38 20.9 °C 13.1 °C 1027.7 hPa SE 3.5 km/h 9.7 km/h 61% 0.0 mm 368 W/m2
13:43 21.1 °C 13.6 °C 1027.3 hPa SE 1.1 km/h 11.1 km/h 62% 0.0 mm 337 W/m2
13:48 21.1 °C 13.8 °C 1027.3 hPa SE 2.6 km/h 11.1 km/h 63% 0.0 mm 307 W/m2
13:53 21.3 °C 14.0 °C 1027.3 hPa SE 3.5 km/h 9.7 km/h 63% 0.0 mm 362 W/m2
13:57 21.3 °C 14.0 °C 1027.3 hPa SE 1.1 km/h 9.7 km/h 63% 0.0 mm 391 W/m2
14:02 21.3 °C 13.7 °C 1027.3 hPa SSE 1.1 km/h 9.7 km/h 62% 0.0 mm 482 W/m2
14:07 21.4 °C 13.8 °C 1027.3 hPa SSE 2.6 km/h 8.7 km/h 62% 0.0 mm 394 W/m2
14:12 21.3 °C 13.7 °C 1027.3 hPa SSE 5.0 km/h 9.7 km/h 62% 0.0 mm 381 W/m2
14:17 21.4 °C 14.3 °C 1027.0 hPa SSE 7.2 km/h 9.7 km/h 64% 0.0 mm 437 W/m2
14:22 21.4 °C 14.6 °C 1027.0 hPa SE 5.0 km/h 13.4 km/h 65% 0.0 mm 482 W/m2
14:27 21.5 °C 14.7 °C 1027.0 hPa SE 6.1 km/h 13.4 km/h 65% 0.0 mm 360 W/m2
14:32 21.3 °C 14.4 °C 1027.0 hPa SE 5.0 km/h 12.2 km/h 65% 0.0 mm 329 W/m2
14:37 21.2 °C 14.6 °C 1027.0 hPa SE 2.6 km/h 12.2 km/h 66% 0.0 mm 313 W/m2
14:42 21.2 °C 14.6 °C 1027.0 hPa ESE 2.6 km/h 8.7 km/h 66% 0.0 mm 336 W/m2
14:47 21.3 °C 14.7 °C 1027.0 hPa ESE 1.1 km/h 13.4 km/h 66% 0.0 mm 473 W/m2
14:52 22.1 °C 15.0 °C 1027.0 hPa SE 1.1 km/h 13.4 km/h 64% 0.0 mm 714 W/m2
14:57 23.2 °C 14.8 °C 1027.0 hPa ESE 7.2 km/h 15.8 km/h 59% 0.0 mm 753 W/m2
15:02 23.2 °C 15.0 °C 1027.0 hPa ESE 3.5 km/h 15.8 km/h 60% 0.0 mm 465 W/m2
15:07 22.9 °C 15.0 °C 1027.0 hPa SE 6.1 km/h 15.8 km/h 61% 0.0 mm 388 W/m2
15:12 22.4 °C 14.8 °C 1026.6 hPa SE 2.6 km/h 11.1 km/h 62% 0.0 mm 392 W/m2
15:17 22.3 °C 14.9 °C 1026.6 hPa ESE 3.5 km/h 13.4 km/h 63% 0.0 mm 511 W/m2
15:22 22.7 °C 15.6 °C 1027.0 hPa SE 3.5 km/h 13.4 km/h 64% 0.0 mm 326 W/m2
15:27 22.4 °C 14.8 °C 1026.6 hPa SE 5.0 km/h 13.4 km/h 62% 0.0 mm 533 W/m2
15:32 22.5 °C 15.1 °C 1026.6 hPa ESE 3.5 km/h 9.7 km/h 63% 0.0 mm 474 W/m2
15:37 22.7 °C 15.1 °C 1026.3 hPa ESE 3.5 km/h 13.4 km/h 62% 0.0 mm 396 W/m2
15:42 22.9 °C 15.3 °C 1026.3 hPa Calm   13.4 km/h 62% 0.0 mm 674 W/m2
15:47 23.7 °C 15.8 °C 1026.3 hPa SE 3.5 km/h 14.8 km/h 61% 0.0 mm 596 W/m2
15:52 23.3 °C 15.4 °C 1026.3 hPa ESE 6.1 km/h 14.8 km/h 61% 0.0 mm 356 W/m2
15:57 22.7 °C 15.3 °C 1026.3 hPa East 6.1 km/h 11.1 km/h 63% 0.0 mm 373 W/m2
16:02 22.3 °C 14.7 °C 1026.3 hPa ESE 3.5 km/h 11.1 km/h 62% 0.0 mm 223 W/m2
16:07 23.0 °C 15.3 °C 1026.3 hPa Calm   11.1 km/h 62% 0.0 mm 501 W/m2
16:15 22.0 °C 14.4 °C 1026.3 hPa ESE 6.1 km/h 15.8 km/h 62% 0.0 mm 451 W/m2
16:21 22.3 °C 14.9 °C 1026.0 hPa ESE 5.0 km/h 15.8 km/h 63% 0.0 mm 432 W/m2
16:23 22.6 °C 14.9 °C 1026.0 hPa Calm   15.8 km/h 62% 0.0 mm 414 W/m2
16:28 23.1 °C 14.9 °C 1026.0 hPa SE 1.1 km/h 11.1 km/h 60% 0.0 mm 189 W/m2
16:33 22.3 °C 14.7 °C 1026.0 hPa Calm   11.1 km/h 62% 0.0 mm 285 W/m2
16:38 23.0 °C 15.1 °C 1026.0 hPa ESE 1.1 km/h 9.7 km/h 61% 0.0 mm 374 W/m2
16:43 23.6 °C 15.4 °C 1025.6 hPa SE 2.6 km/h 9.7 km/h 60% 0.0 mm 368 W/m2
16:45 23.6 °C 15.4 °C 1025.6 hPa SE 2.6 km/h 9.7 km/h 60% 0.0 mm 367 W/m2
16:50 23.6 °C 14.9 °C 1025.6 hPa SE 3.5 km/h 12.2 km/h 58% 0.0 mm 362 W/m2
16:55 23.7 °C 15.2 °C 1025.6 hPa SE 1.1 km/h 12.2 km/h 59% 0.0 mm 348 W/m2
17:00 24.1 °C 14.8 °C 1025.6 hPa ESE 5.0 km/h 12.2 km/h 56% 0.0 mm 336 W/m2
17:05 23.7 °C 14.7 °C 1025.3 hPa ESE 2.6 km/h 9.7 km/h 57% 0.0 mm 323 W/m2
17:10 23.6 °C 14.3 °C 1025.3 hPa ESE 6.1 km/h 14.8 km/h 56% 0.0 mm 310 W/m2
17:15 22.9 °C 14.2 °C 1025.3 hPa ESE 6.1 km/h 14.8 km/h 58% 0.0 mm 297 W/m2
17:20 23.0 °C 14.3 °C 1025.3 hPa ESE 5.0 km/h 14.8 km/h 58% 0.0 mm 284 W/m2
17:25 23.2 °C 14.5 °C 1025.6 hPa ESE 1.1 km/h 12.2 km/h 58% 0.0 mm 272 W/m2
17:30 23.4 °C 14.2 °C 1025.6 hPa Calm   11.1 km/h 56% 0.0 mm 260 W/m2
17:35 23.8 °C 14.8 °C 1025.3 hPa ESE 3.5 km/h 11.1 km/h 57% 0.0 mm 247 W/m2
17:40 24.2 °C 14.3 °C 1025.3 hPa ESE 1.1 km/h 8.7 km/h 54% 0.0 mm 235 W/m2
17:45 24.5 °C 14.6 °C 1025.3 hPa ESE 2.6 km/h 6.1 km/h 54% 0.0 mm 223 W/m2
17:50 24.2 °C 14.6 °C 1025.3 hPa SE 3.5 km/h 12.2 km/h 55% 0.0 mm 209 W/m2
17:55 23.7 °C 15.5 °C 1025.6 hPa Calm   12.2 km/h 60% 0.0 mm 197 W/m2
18:00 24.2 °C 15.4 °C 1025.6 hPa SSE 3.5 km/h 8.7 km/h 58% 0.0 mm 185 W/m2
18:05 23.9 °C 15.4 °C 1025.3 hPa South 1.1 km/h 5.0 km/h 59% 0.0 mm 174 W/m2
18:10 23.8 °C 15.3 °C 1025.3 hPa South 2.6 km/h 5.0 km/h 59% 0.0 mm 56 W/m2
18:15 22.2 °C 14.6 °C 1025.3 hPa South 1.1 km/h 6.1 km/h 62% 0.0 mm 50 W/m2
18:20 21.5 °C 15.1 °C 1025.3 hPa SSE 1.1 km/h 6.1 km/h 67% 0.0 mm 48 W/m2
18:25 21.7 °C 15.6 °C 1025.3 hPa Calm   5.0 km/h 68% 0.0 mm 105 W/m2
18:30 22.5 °C 15.4 °C 1025.3 hPa South 1.1 km/h 6.1 km/h 64% 0.0 mm 62 W/m2
18:35 21.8 °C 15.4 °C 1025.3 hPa SW 1.1 km/h 6.1 km/h 67% 0.0 mm 42 W/m2
18:40 21.4 °C 14.8 °C 1025.3 hPa NNW 1.1 km/h 5.0 km/h 66% 0.0 mm 39 W/m2
18:45 21.4 °C 14.1 °C 1025.3 hPa Calm   7.2 km/h 63% 0.0 mm 36 W/m2
18:50 21.4 °C 13.8 °C 1025.3 hPa NNE 5.0 km/h 7.2 km/h 62% 0.0 mm 32 W/m2
18:55 21.2 °C 13.7 °C 1025.3 hPa NE 3.5 km/h 12.2 km/h 62% 0.0 mm 29 W/m2
19:00 21.2 °C 13.7 °C 1025.6 hPa NE 2.6 km/h 12.2 km/h 62% 0.0 mm 35 W/m2
19:05 21.0 °C 13.4 °C 1025.6 hPa NE 6.1 km/h 11.1 km/h 62% 0.0 mm 21 W/m2
19:10 20.7 °C 13.7 °C 1025.6 hPa NE 2.6 km/h 9.7 km/h 64% 0.0 mm 19 W/m2
19:15 20.6 °C 13.8 °C 1025.6 hPa NE 6.1 km/h 9.7 km/h 65% 0.0 mm 16 W/m2
19:20 20.4 °C 13.8 °C 1025.6 hPa NE 2.6 km/h 8.7 km/h 66% 0.0 mm 12 W/m2
19:25 20.2 °C 13.9 °C 1025.6 hPa NE 2.6 km/h 8.7 km/h 67% 0.0 mm 10 W/m2
19:30 20.1 °C 14.0 °C 1026.0 hPa Calm   7.2 km/h 68% 0.0 mm 7 W/m2
19:35 19.7 °C 14.3 °C 1025.6 hPa ENE 2.6 km/h 7.2 km/h 71% 0.0 mm 4 W/m2
19:40 19.4 °C 14.4 °C 1026.0 hPa ENE 3.5 km/h 7.2 km/h 73% 0.0 mm 2 W/m2
19:46 19.1 °C 14.4 °C 1026.0 hPa Calm   7.2 km/h 74% 0.0 mm 0 W/m2
19:51 18.8 °C 14.3 °C 1026.0 hPa NE 1.1 km/h 8.7 km/h 75% 0.0 mm 0 W/m2
19:56 18.6 °C 14.3 °C 1026.0 hPa NE 3.5 km/h 8.7 km/h 76% 0.0 mm 0 W/m2
20:01 18.4 °C 14.1 °C 1026.0 hPa NE 1.1 km/h 7.2 km/h 76% 0.0 mm 0 W/m2
20:06 18.3 °C 14.0 °C 1026.3 hPa NE 1.1 km/h 6.1 km/h 76% 0.0 mm 0 W/m2
20:11 18.2 °C 13.9 °C 1026.0 hPa Calm   5.0 km/h 76% 0.0 mm 0 W/m2
20:16 18.0 °C 13.7 °C 1026.3 hPa Calm   5.0 km/h 76% 0.0 mm 0 W/m2
20:21 17.8 °C 13.7 °C 1026.3 hPa Calm     77% 0.0 mm 0 W/m2
20:26 17.5 °C 13.4 °C 1026.6 hPa Calm     77% 0.0 mm 0 W/m2
20:31 17.4 °C 13.6 °C 1026.3 hPa North 1.1 km/h 2.6 km/h 78% 0.0 mm 0 W/m2
20:36 17.3 °C 13.4 °C 1026.6 hPa North 1.1 km/h 5.0 km/h 78% 0.0 mm 0 W/m2
20:41 17.3 °C 13.4 °C 1026.6 hPa Calm   5.0 km/h 78% 0.0 mm 0 W/m2
20:46 17.1 °C 13.2 °C 1026.6 hPa Calm   5.0 km/h 78% 0.0 mm 0 W/m2
20:51 17.0 °C 13.2 °C 1026.6 hPa Calm   2.6 km/h 78% 0.0 mm 0 W/m2
20:56 17.0 °C 13.2 °C 1027.0 hPa Calm   2.6 km/h 78% 0.0 mm 0 W/m2
21:01 16.8 °C 13.3 °C 1027.0 hPa NNE 1.1 km/h 3.5 km/h 80% 0.0 mm 0 W/m2
21:06 16.8 °C 13.3 °C 1027.0 hPa Calm   3.5 km/h 80% 0.0 mm 0 W/m2
21:11 16.7 °C 13.2 °C 1027.0 hPa Calm   3.5 km/h 80% 0.0 mm 0 W/m2
21:16 16.5 °C 13.2 °C 1027.0 hPa Calm   1.1 km/h 81% 0.0 mm 0 W/m2
21:21 16.4 °C 13.1 °C 1027.0 hPa Calm   1.1 km/h 81% 0.0 mm 0 W/m2
21:26 16.4 °C 13.1 °C 1027.0 hPa Calm   1.1 km/h 81% 0.0 mm 0 W/m2
21:31 16.3 °C 13.2 °C 1027.0 hPa Calm   1.1 km/h 82% 0.0 mm 0 W/m2
21:36 16.0 °C 12.9 °C 1027.3 hPa Calm   1.1 km/h 82% 0.0 mm 0 W/m2
21:41 15.7 °C 13.0 °C 1027.0 hPa Calm   1.1 km/h 84% 0.0 mm 0 W/m2
21:46 15.6 °C 13.1 °C 1027.3 hPa Calm   2.6 km/h 85% 0.0 mm 0 W/m2
21:51 15.5 °C 13.2 °C 1027.3 hPa Calm   2.6 km/h 86% 0.0 mm 0 W/m2
21:56 15.5 °C 13.3 °C 1027.3 hPa Calm   1.1 km/h 87% 0.0 mm 0 W/m2
22:01 15.5 °C 13.6 °C 1027.0 hPa Calm     88% 0.0 mm 0 W/m2
22:06 15.5 °C 13.7 °C 1027.3 hPa Calm     89% 0.0 mm 0 W/m2
22:12 15.6 °C 13.6 °C 1027.3 hPa Calm     88% 0.0 mm 0 W/m2
22:22 16.0 °C 13.7 °C 1027.3 hPa NW 2.6 km/h 6.1 km/h 86% 0.0 mm 0 W/m2
22:27 16.1 °C 13.6 °C 1027.3 hPa NW 5.0 km/h 7.2 km/h 85% 0.0 mm 0 W/m2
22:32 16.2 °C 13.5 °C 1027.3 hPa NW 2.6 km/h 9.7 km/h 84% 0.0 mm 0 W/m2
22:37 16.2 °C 13.3 °C 1027.0 hPa NW 5.0 km/h 11.1 km/h 83% 0.0 mm 0 W/m2
22:42 16.2 °C 13.3 °C 1027.3 hPa NNW 2.6 km/h 11.1 km/h 83% 0.0 mm 0 W/m2
22:47 16.2 °C 13.3 °C 1027.3 hPa NW 2.6 km/h 7.2 km/h 83% 0.0 mm 0 W/m2
22:52 16.1 °C 13.2 °C 1027.3 hPa NNW 1.1 km/h 7.2 km/h 83% 0.0 mm 0 W/m2
22:57 16.0 °C 13.1 °C 1027.3 hPa NNW 1.1 km/h 6.1 km/h 83% 0.0 mm 0 W/m2
23:02 15.9 °C 13.2 °C 1027.3 hPa Calm   5.0 km/h 84% 0.0 mm 0 W/m2
23:07 15.7 °C 13.0 °C 1027.3 hPa Calm   5.0 km/h 84% 0.0 mm 0 W/m2
23:12 15.6 °C 12.9 °C 1027.3 hPa Calm   2.6 km/h 84% 0.0 mm 0 W/m2
23:17 15.5 °C 12.8 °C 1027.7 hPa Calm   2.6 km/h 84% 0.0 mm 0 W/m2
23:22 15.4 °C 12.7 °C 1027.7 hPa NNW 1.1 km/h 3.5 km/h 84% 0.0 mm 0 W/m2
23:27 15.4 °C 12.7 °C 1027.7 hPa North 1.1 km/h 5.0 km/h 84% 0.0 mm 0 W/m2
23:32 15.4 °C 12.6 °C 1027.7 hPa North 2.6 km/h 5.0 km/h 83% 0.0 mm 0 W/m2
23:37 15.4 °C 12.6 °C 1027.7 hPa NNW 5.0 km/h 7.2 km/h 83% 0.0 mm 0 W/m2
23:42 15.4 °C 12.6 °C 1027.7 hPa NW 2.6 km/h 7.2 km/h 83% 0.0 mm 0 W/m2
23:52 15.2 °C 12.3 °C 1027.7 hPa NNW 1.1 km/h 8.7 km/h 83% 0.0 mm 0 W/m2
23:57 15.1 °C 12.2 °C 1027.7 hPa NNW 2.6 km/h 8.7 km/h 83% 0.0 mm 0 W/m2
Northern Hawkes Bay. New Zealand Historic Data
Compliments of Weather Underground - 2 mb